Time;durP1;ratioP1;P1;durP2;ratioP2;P2;SDS_P1;SDS_P2;PMS_P1;PMS_P2;Temp;Humidity;BMP_temperature;BMP_pressure;BME280_temperature;BME280_humidity;BME280_pressure;Samples;Min_cycle;Max_cycle;Signal;HPM_P1;HPM_P2
2021/11/02 00:01:31;;;;;;;8.10;1.50;;;29.30;37.20;;;;;;5007415;28;20456;-64
2021/11/02 00:03:58;;;;;;;10.15;1.50;;;29.20;61.40;;;;;;5008622;28;20512;-64
2021/11/02 00:06:24;;;;;;;4.90;1.10;;;29.10;65.70;;;;;;5025539;28;20132;-65
2021/11/02 00:08:50;;;;;;;11.43;1.52;;;29.10;37.00;;;;;;5007848;28;20069;-64
2021/11/02 00:11:17;;;;;;;7.82;1.15;;;29.10;37.10;;;;;;5007686;28;20070;-64
2021/11/02 00:13:46;;;;;;;4.88;1.13;;;29.10;37.20;;;;;;5007490;28;20077;-64
2021/11/02 00:16:16;;;;;;;8.02;1.42;;;29.00;37.40;;;;;;4998353;28;20075;-63
2021/11/02 00:18:50;;;;;;;14.07;1.73;;;29.00;37.40;;;;;;5007620;28;20114;-64
2021/11/02 00:21:17;;;;;;;10.82;1.90;;;28.80;38.10;;;;;;5007543;28;20094;-64
2021/11/02 00:23:44;;;;;;;6.75;1.30;;;28.80;38.80;;;;;;5025961;28;20070;-63
2021/11/02 00:26:13;;;;;;;10.27;1.33;;;28.70;37.40;;;;;;5024247;28;20066;-64
2021/11/02 00:28:40;;;;;;;13.95;1.55;;;28.60;37.90;;;;;;5007631;28;20093;-65
2021/11/02 00:31:06;;;;;;;14.90;1.75;;;28.60;37.60;;;;;;5025301;28;20081;-65
2021/11/02 00:33:33;;;;;;;7.65;1.63;;;28.40;37.80;;;;;;5007490;28;20151;-64
2021/11/02 00:35:59;;;;;;;10.57;1.42;;;28.30;66.90;;;;;;5025340;28;20030;-64
2021/11/02 00:38:26;;;;;;;5.22;1.77;;;28.30;39.20;;;;;;5007540;28;20097;-63
2021/11/02 00:40:53;;;;;;;6.00;2.20;;;28.10;39.30;;;;;;5007601;28;20460;-62
2021/11/02 00:43:19;;;;;;;7.97;2.00;;;28.10;39.10;;;;;;5007797;28;20126;-65
2021/11/02 00:45:46;;;;;;;14.85;1.80;;;28.00;39.60;;;;;;5007173;28;20070;-64
2021/11/02 00:48:14;;;;;;;7.53;1.83;;;27.90;40.00;;;;;;5007468;28;20132;-63
2021/11/02 00:50:44;;;;;;;15.45;2.17;;;27.80;40.00;;;;;;5027773;28;20177;-63
2021/11/02 00:53:12;;;;;;;13.35;2.40;;;27.70;40.20;;;;;;4999969;28;20577;-63
2021/11/02 00:55:40;;;;;;;12.93;2.08;;;27.60;40.70;;;;;;5010663;28;20101;-63
2021/11/02 00:58:06;;;;;;;17.98;2.53;;;27.40;40.60;;;;;;5011148;28;20082;-63
2021/11/02 01:00:36;;;;;;;17.42;2.50;;;27.30;41.30;;;;;;5011631;28;20487;-61
2021/11/02 01:03:05;;;;;;;20.98;3.47;;;27.20;41.20;;;;;;5014028;28;20078;-65
2021/11/02 01:05:31;;;;;;;21.70;3.45;;;27.10;42.10;;;;;;5027364;28;20081;-67
2021/11/02 01:07:58;;;;;;;16.77;3.10;;;27.00;42.00;;;;;;5011245;28;20082;-69
2021/11/02 01:10:25;;;;;;;20.25;3.85;;;26.90;41.80;;;;;;5011414;28;20078;-67
2021/11/02 01:12:53;;;;;;;17.67;3.38;;;26.80;41.80;;;;;;5028686;28;20430;-65
2021/11/02 01:15:31;;;;;;;40.95;4.45;;;26.70;41.40;;;;;;5028418;28;20077;-65
2021/11/02 01:17:58;;;;;;;41.97;4.57;;;26.70;42.40;;;;;;5028440;28;20801;-64
2021/11/02 01:20:27;;;;;;;43.00;4.97;;;26.60;42.90;;;;;;5010736;28;20545;-64
2021/11/02 01:22:54;;;;;;;32.75;4.30;;;26.60;43.50;;;;;;5028411;28;20093;-65
2021/11/02 01:25:21;;;;;;;33.50;3.67;;;26.50;44.20;;;;;;5010703;28;20078;-65
2021/11/02 01:27:49;;;;;;;32.63;5.38;;;26.30;44.50;;;;;;5010874;28;20169;-64
2021/11/02 01:30:15;;;;;;;28.80;4.20;;;26.30;45.30;;;;;;5028924;28;20081;-65
2021/11/02 01:32:44;;;;;;;34.42;4.32;;;26.20;46.20;;;;;;5010379;28;20136;-65
2021/11/02 01:35:10;;;;;;;26.17;4.47;;;26.10;46.00;;;;;;5010731;28;20069;-67
2021/11/02 01:37:39;;;;;;;39.05;4.63;;;26.10;45.90;;;;;;5010821;28;20105;-66
2021/11/02 01:40:14;;;;;;;31.70;5.22;;;25.90;46.60;;;;;;5010358;28;20078;-69
2021/11/02 01:42:41;;;;;;;27.13;5.03;;;25.90;46.20;;;;;;5028235;28;20092;-68
2021/11/02 01:45:11;;;;;;;42.55;5.22;;;25.80;45.80;;;;;;4994687;28;20082;-65
2021/11/02 01:47:45;;;;;;;34.90;5.15;;;25.80;46.20;;;;;;5027778;28;21023;-66
2021/11/02 01:50:13;;;;;;;31.00;5.65;;;25.70;46.60;;;;;;5009829;28;20618;-66
2021/11/02 01:52:40;;;;;;;50.53;6.60;;;25.70;46.50;;;;;;5024799;28;20144;-65
2021/11/02 01:55:08;;;;;;;37.40;7.43;;;25.70;46.60;;;;;;5000504;28;20090;-65
2021/11/02 01:57:35;;;;;;;30.13;6.50;;;25.70;46.40;;;;;;5000009;28;20086;-65
2021/11/02 02:00:06;;;;;;;30.33;7.28;;;25.60;46.40;;;;;;4998734;28;20073;-66
2021/11/02 02:02:38;;;;;;;47.53;7.65;;;25.60;46.70;;;;;;4999840;28;20595;-67
2021/11/02 02:05:49;;;;;;;48.00;8.18;;;25.50;46.70;;;;;;5001563;28;20082;-65
2021/11/02 02:09:11;;;;;;;43.50;7.80;;;25.50;46.90;;;;;;4998786;28;20094;-66
2021/11/02 02:11:47;;;;;;;49.03;8.73;;;25.40;46.40;;;;;;4946478;28;20087;-65
2021/11/02 02:14:17;;;;;;;45.95;8.27;;;25.40;47.40;;;;;;4960021;28;20452;-66
2021/11/02 02:16:49;;;;;;;46.95;9.95;;;25.30;47.80;;;;;;4957447;28;20443;-66
2021/11/02 02:20:02;;;;;;;63.58;9.43;;;25.40;47.70;;;;;;4941681;28;20707;-66
2021/11/02 02:22:50;;;;;;;48.90;9.23;;;25.30;46.80;;;;;;4929498;28;20597;-67
2021/11/02 02:25:30;;;;;;;52.65;8.93;;;25.30;48.00;;;;;;4958623;28;20456;-66
2021/11/02 02:28:03;;;;;;;58.63;8.85;;;25.30;47.60;;;;;;4957882;28;20089;-65
2021/11/02 02:30:31;;;;;;;66.95;9.15;;;25.20;48.20;;;;;;4958013;28;20166;-63
2021/11/02 02:32:59;;;;;;;51.45;8.32;;;25.20;48.10;;;;;;4941589;28;20142;-65
2021/11/02 02:35:27;;;;;;;49.40;7.85;;;25.20;48.40;;;;;;4941758;28;20205;-65
2021/11/02 02:37:55;;;;;;;44.60;7.85;;;25.20;48.60;;;;;;4941119;28;20598;-65
2021/11/02 02:40:22;;;;;;;65.57;7.72;;;25.20;49.30;;;;;;4957767;28;20095;-64
2021/11/02 02:42:50;;;;;;;58.72;8.00;;;25.20;48.90;;;;;;4943801;28;20071;-66
2021/11/02 02:45:18;;;;;;;43.67;7.45;;;25.20;49.00;;;;;;4986190;28;20534;-67
2021/11/02 02:47:46;;;;;;;47.85;7.07;;;25.10;49.00;;;;;;4999243;28;20201;-64
2021/11/02 02:50:14;;;;;;;44.55;8.10;;;25.10;48.10;;;;;;5015805;28;20553;-66
2021/11/02 02:52:43;;;;;;;37.17;8.25;;;25.10;48.20;;;;;;4998181;28;20606;-65
2021/11/02 02:55:11;;;;;;;45.30;8.00;;;25.10;48.30;;;;;;4998419;28;20082;-63
2021/11/02 02:57:38;;;;;;;56.33;9.75;;;25.10;48.50;;;;;;4997941;28;20086;-65
2021/11/02 03:00:05;;;;;;;56.63;9.27;;;25.10;48.60;;;;;;5016222;28;20085;-65
2021/11/02 03:02:33;;;;;;;50.28;9.30;;;25.10;48.80;;;;;;4998206;28;20123;-66
2021/11/02 03:05:04;;;;;;;56.67;11.48;;;25.10;48.90;;;;;;4998995;28;20078;-66
2021/11/02 03:07:31;;;;;;;65.28;10.75;;;25.00;50.00;;;;;;4997515;28;20081;-64
2021/11/02 03:09:58;;;;;;;49.40;9.57;;;25.00;50.20;;;;;;4998340;28;20178;-65
2021/11/02 03:12:33;;;;;;;64.32;10.50;;;25.00;49.70;;;;;;4997764;28;20488;-66
2021/11/02 03:15:32;;;;;;;62.25;10.35;;;25.00;49.70;;;;;;5028824;28;20127;-65
2021/11/02 03:18:33;;;;;;;50.50;10.18;;;25.00;50.20;;;;;;5016374;28;20086;-65
2021/11/02 03:43:47;;;;;;;65.07;12.02;;;24.90;49.60;;;;;;4992525;28;20123;-65
2021/11/02 03:49:16;;;;;;;38.10;8.68;;;24.90;46.70;;;;;;5006609;28;20089;-64
2021/11/02 03:54:44;;;;;;;33.95;7.53;;;25.00;45.80;;;;;;5001948;28;20094;-65
2021/11/02 04:28:13;;;;;;;15.57;2.90;;;25.10;45.70;;;;;;5029849;28;20160;-65
2021/11/02 04:36:51;;;;;;;17.20;1.98;;;25.20;50.70;;;;;;5029323;28;20120;-66
2021/11/02 04:45:23;;;;;;;20.88;2.95;;;24.70;54.60;;;;;;5029135;28;20093;-65
2021/11/02 05:48:35;;;;;;;8.27;2.33;;;24.10;48.10;;;;;;5028104;28;20175;-64
2021/11/02 05:56:34;;;;;;;8.57;2.90;;;24.10;46.70;;;;;;5027794;28;20116;-65
2021/11/02 06:07:20;;;;;;;4.22;2.05;;;24.20;46.60;;;;;;5012804;28;20613;-65
2021/11/02 06:09:56;;;;;;;4.07;2.00;;;24.10;46.70;;;;;;5009855;28;20518;-65
2021/11/02 06:29:23;;;;;;;3.83;1.92;;;23.70;49.30;;;;;;4997997;28;20131;-64
2021/11/02 06:31:56;;;;;;;5.85;2.08;;;23.70;49.60;;;;;;5027291;28;20070;-66
2021/11/02 06:35:14;;;;;;;4.80;2.10;;;23.70;49.70;;;;;;5009832;28;20082;-64
2021/11/02 06:40:11;;;;;;;5.37;2.10;;;23.60;50.10;;;;;;5026714;28;20195;-64
2021/11/02 07:11:03;;;;;;;17.42;3.00;;;23.20;51.60;;;;;;4952361;28;20117;-67
2021/11/02 07:18:58;;;;;;;7.47;2.00;;;23.10;52.60;;;;;;4964189;28;21236;-64
2021/11/02 07:21:40;;;;;;;8.50;2.00;;;23.10;53.40;;;;;;4964888;28;20102;-61
2021/11/02 07:24:23;;;;;;;8.13;2.53;;;23.10;52.70;;;;;;4964509;28;20080;-61
2021/11/02 07:27:06;;;;;;;12.63;3.10;;;23.00;52.70;;;;;;4964793;28;20102;-60
2021/11/02 08:45:19;;;;;;;14.38;3.97;;;21.00;59.70;;;;;;5025773;28;20085;-64
2021/11/02 08:47:48;;;;;;;9.93;3.90;;;21.00;59.80;;;;;;5009464;28;20139;-65
2021/11/02 08:50:19;;;;;;;22.75;4.60;;;20.90;60.00;;;;;;5025465;28;20542;-65
2021/11/02 08:52:51;;;;;;;17.38;5.40;;;20.90;60.50;;;;;;5021836;28;20144;-62
2021/11/02 08:55:19;;;;;;;21.55;6.03;;;20.80;60.30;;;;;;5014625;28;20069;-65
2021/11/02 08:57:52;;;;;;;16.40;5.57;;;20.80;60.60;;;;;;5014155;28;20430;-66
2021/11/02 09:00:19;;;;;;;15.30;5.43;;;20.70;61.00;;;;;;5014821;28;20078;-64
2021/11/02 09:02:50;;;;;;;15.57;4.93;;;20.70;61.30;;;;;;4996075;28;20082;-64
2021/11/02 09:05:25;;;;;;;26.75;5.20;;;20.70;61.40;;;;;;4996916;28;20082;-65
2021/11/02 09:07:55;;;;;;;16.45;5.00;;;20.60;61.60;;;;;;4981386;28;20085;-66
2021/11/02 09:10:22;;;;;;;14.68;4.97;;;20.50;62.00;;;;;;5016378;28;20165;-65
2021/11/02 09:12:51;;;;;;;21.00;5.10;;;20.50;62.40;;;;;;5000859;28;20078;-65
2021/11/02 09:15:24;;;;;;;18.25;4.68;;;20.50;62.70;;;;;;5000606;28;20070;-65
2021/11/02 09:17:53;;;;;;;17.50;4.82;;;20.40;63.00;;;;;;5000773;28;20083;-64
2021/11/02 09:20:21;;;;;;;15.50;4.45;;;20.40;63.30;;;;;;5000716;28;20674;-65
2021/11/02 09:22:48;;;;;;;15.35;5.05;;;20.30;63.80;;;;;;5000767;28;20066;-64
2021/11/02 09:25:16;;;;;;;15.13;4.35;;;20.30;64.40;;;;;;5000299;28;20078;-65
2021/11/02 09:27:43;;;;;;;15.85;4.07;;;20.30;64.20;;;;;;4999868;28;20085;-65
2021/11/02 09:30:11;;;;;;;16.50;4.18;;;20.20;64.70;;;;;;5000088;28;20161;-65
2021/11/02 09:32:48;;;;;;;14.27;4.13;;;20.10;65.40;;;;;;5018062;28;20136;-64
2021/11/02 09:35:18;;;;;;;9.77;3.50;;;20.10;65.70;;;;;;5000753;28;20097;-66
2021/11/02 09:37:51;;;;;;;13.80;3.85;;;20.10;66.40;;;;;;5000735;28;20223;-65
2021/11/02 09:40:30;;;;;;;11.90;4.25;;;20.00;66.90;;;;;;5000136;28;20070;-64
2021/11/02 09:43:48;;;;;;;10.02;4.18;;;20.00;67.30;;;;;;5000479;28;20074;-65
2021/11/02 09:46:36;;;;;;;11.57;4.03;;;19.90;66.80;;;;;;4983325;28;20535;-66
2021/11/02 09:49:34;;;;;;;13.57;4.03;;;19.90;67.20;;;;;;4999648;28;20084;-64
2021/11/02 09:52:22;;;;;;;12.60;4.18;;;19.90;67.00;;;;;;5000261;28;20452;-64
2021/11/02 09:55:19;;;;;;;16.67;3.90;;;19.90;65.80;;;;;;5010319;28;20580;-65
2021/11/02 09:58:13;;;;;;;13.70;3.53;;;19.90;65.30;;;;;;5010583;28;20085;-64
2021/11/02 10:01:05;;;;;;;14.65;3.85;;;20.00;62.70;;;;;;5010354;28;20098;-66
2021/11/02 10:03:57;;;;;;;10.80;3.08;;;20.00;61.10;;;;;;5010257;28;20093;-63
2021/11/02 10:07:02;;;;;;;11.50;3.83;;;20.10;59.80;;;;;;5010638;28;20082;-61
2021/11/02 10:10:18;;;;;;;9.82;3.40;;;20.20;59.20;;;;;;5010246;28;20094;-61
2021/11/02 10:13:13;;;;;;;12.50;3.58;;;21.40;56.00;;;;;;4962868;28;20189;-62
2021/11/02 10:15:54;;;;;;;10.32;3.30;;;22.00;53.60;;;;;;4964546;28;20114;-61
2021/11/02 10:18:56;;;;;;;9.68;4.22;;;22.50;52.60;;;;;;4964360;28;20668;-60
2021/11/02 10:21:47;;;;;;;9.98;3.80;;;22.40;52.60;;;;;;4949304;28;20103;-61
2021/11/02 10:24:28;;;;;;;11.00;4.07;;;22.20;53.10;;;;;;4965753;28;20027;-61
2021/11/02 10:27:22;;;;;;;10.68;3.70;;;22.00;53.30;;;;;;4965193;28;20080;-62
2021/11/02 10:30:16;;;;;;;13.90;5.22;;;22.20;54.00;;;;;;4964491;28;20607;-61
2021/11/02 10:32:56;;;;;;;18.35;6.00;;;22.30;53.40;;;;;;4964558;28;20085;-61
2021/11/02 10:35:53;;;;;;;15.57;5.60;;;22.10;53.50;;;;;;4965503;28;20119;-61
2021/11/02 10:38:33;;;;;;;14.63;5.10;;;22.10;53.70;;;;;;4933454;28;20095;-61
2021/11/02 10:41:04;;;;;;;16.50;5.72;;;21.70;54.60;;;;;;4943783;28;20558;-62
2021/11/02 10:43:51;;;;;;;16.77;5.60;;;21.40;55.10;;;;;;4964833;28;20326;-61
2021/11/02 10:46:23;;;;;;;11.45;4.93;;;21.20;55.70;;;;;;4964315;28;20075;-63
2021/11/02 10:48:50;;;;;;;13.15;4.43;;;21.00;61.80;;;;;;4976438;28;20102;-62
2021/11/02 10:51:35;;;;;;;18.85;4.40;;;21.30;56.10;;;;;;5009527;28;20102;-63
2021/11/02 10:54:40;;;;;;;17.33;4.65;;;21.80;55.50;;;;;;5009342;28;20177;-62
2021/11/02 10:57:42;;;;;;;14.55;4.55;;;21.80;55.40;;;;;;4921017;29;20127;-62
2021/11/02 11:00:11;;;;;;;18.80;4.00;;;21.70;55.80;;;;;;4915692;29;20154;-60
2021/11/02 11:02:38;;;;;;;13.57;4.70;;;21.40;56.30;;;;;;4912096;29;20095;-62
2021/11/02 11:05:07;;;;;;;14.70;4.25;;;21.20;56.80;;;;;;4922267;29;20112;-61
2021/11/02 11:07:45;;;;;;;16.38;3.97;;;21.00;57.10;;;;;;4921000;29;20069;-61
2021/11/02 11:10:13;;;;;;;24.38;3.88;;;20.90;57.50;;;;;;4905943;29;20079;-62
2021/11/02 11:12:50;;;;;;;15.63;4.78;;;21.10;58.60;;;;;;4920812;29;20079;-61
2021/11/02 11:15:16;;;;;;;13.65;3.95;;;21.30;56.80;;;;;;4922587;29;20084;-62
2021/11/02 11:18:03;;;;;;;18.38;4.13;;;20.90;57.20;;;;;;4921761;29;20099;-62
2021/11/02 11:20:32;;;;;;;12.93;4.50;;;21.30;56.90;;;;;;4911387;29;20157;-63
2021/11/02 11:22:59;;;;;;;14.18;4.97;;;21.00;56.80;;;;;;4927736;29;20095;-61
2021/11/02 11:25:48;;;;;;;14.93;4.55;;;20.70;57.40;;;;;;4927987;29;20092;-62
2021/11/02 11:28:16;;;;;;;14.85;4.38;;;20.60;57.80;;;;;;4921417;29;20116;-62
2021/11/02 11:30:43;;;;;;;17.63;4.53;;;20.40;58.00;;;;;;4951290;28;20137;-62
2021/11/02 11:33:13;;;;;;;18.90;4.78;;;20.30;58.00;;;;;;5007653;28;21504;-62
2021/11/02 11:35:41;;;;;;;18.38;6.30;;;20.10;58.50;;;;;;5009435;28;20566;-62
2021/11/02 11:38:10;;;;;;;18.83;6.25;;;20.00;59.70;;;;;;5024668;28;20709;-62
2021/11/02 11:40:39;;;;;;;28.02;7.78;;;19.90;60.40;;;;;;5008200;28;20101;-62
2021/11/02 11:43:07;;;;;;;29.63;9.80;;;20.00;60.10;;;;;;4992795;28;20082;-63
2021/11/02 11:45:38;;;;;;;36.25;9.70;;;19.90;60.60;;;;;;5009513;23;20100;-63
2021/11/02 11:48:05;;;;;;;41.08;12.10;;;19.80;60.70;;;;;;4986416;28;20574;-62
2021/11/02 11:50:33;;;;;;;54.90;16.52;;;19.60;61.60;;;;;;4994381;28;20105;-63
2021/11/02 11:53:03;;;;;;;54.47;17.80;;;20.00;61.10;;;;;;5005373;28;20098;-63
2021/11/02 11:55:33;;;;;;;63.92;19.00;;;20.50;60.00;;;;;;4988392;28;20085;-62
2021/11/02 11:58:22;;;;;;;49.58;19.50;;;20.40;59.70;;;;;;4987596;28;20173;-62
2021/11/02 12:00:52;;;;;;;59.97;20.60;;;20.40;59.70;;;;;;5005423;28;20129;-61
2021/11/02 12:03:30;;;;;;;63.35;20.92;;;20.00;60.60;;;;;;4988877;28;20476;-62
2021/11/02 12:06:24;;;;;;;54.10;20.13;;;19.70;62.00;;;;;;5005564;28;20125;-61
2021/11/02 12:09:03;;;;;;;58.78;19.05;;;19.60;63.00;;;;;;4990671;28;20467;-61
2021/11/02 12:11:32;;;;;;;58.70;20.65;;;19.50;63.60;;;;;;5004865;28;20081;-60
2021/11/02 12:14:25;;;;;;;62.10;22.77;;;19.40;64.40;;;;;;5004985;28;20075;-56
2021/11/02 12:16:58;;;;;;;62.28;23.30;;;19.30;64.60;;;;;;4988785;28;20087;-61
2021/11/02 12:19:33;;;;;;;57.53;22.60;;;19.20;65.40;;;;;;5003767;28;20140;-63
2021/11/02 12:22:12;;;;;;;60.05;22.73;;;19.10;67.10;;;;;;5006617;28;20055;-62
2021/11/02 12:24:42;;;;;;;72.15;23.80;;;19.20;66.00;;;;;;5004300;28;20085;-62
2021/11/02 12:27:17;;;;;;;61.22;24.35;;;19.40;63.80;;;;;;5004039;28;20067;-61
2021/11/02 12:29:51;;;;;;;71.47;25.38;;;20.20;87.70;;;;;;5003532;28;20081;-60
2021/11/02 12:32:22;;;;;;;69.57;25.65;;;19.30;65.40;;;;;;5013257;28;20582;-61
2021/11/02 12:34:52;;;;;;;75.47;24.77;;;19.10;65.80;;;;;;5008132;28;20090;-64
2021/11/02 12:37:20;;;;;;;76.50;25.33;;;18.90;66.80;;;;;;4947871;28;20115;-62
2021/11/02 12:39:48;;;;;;;86.13;28.38;;;18.90;67.70;;;;;;4962770;28;20094;-62
2021/11/02 12:42:20;;;;;;;79.57;28.55;;;18.30;85.10;;;;;;4931352;28;20150;-62
2021/11/02 12:44:49;;;;;;;86.38;28.17;;;19.40;97.30;;;;;;4950503;28;20035;-62
2021/11/02 12:47:22;;;;;;;82.75;29.52;;;19.40;65.40;;;;;;4967576;28;20123;-61
2021/11/02 12:50:08;;;;;;;90.03;26.23;;;19.10;66.20;;;;;;4934484;28;20038;-62
2021/11/02 12:52:37;;;;;;;91.13;28.42;;;19.10;66.90;;;;;;4952412;28;20258;-64
2021/11/02 12:55:08;;;;;;;85.60;25.58;;;19.20;67.00;;;;;;4951825;28;20083;-63
2021/11/02 12:57:43;;;;;;;79.93;26.30;;;19.10;67.40;;;;;;4968146;28;20094;-62
2021/11/02 13:00:15;;;;;;;87.60;28.60;;;19.40;66.30;;;;;;4950905;28;20186;-62
2021/11/02 13:02:45;;;;;;;74.45;26.38;;;19.30;66.50;;;;;;4951223;28;20478;-62
2021/11/02 13:05:20;;;;;;;76.32;27.40;;;19.40;66.80;;;;;;4968168;28;20699;-60
2021/11/02 13:08:03;;;;;;;79.55;28.17;;;19.50;66.60;;;;;;4933813;28;20258;-61
2021/11/02 13:10:31;;;;;;;82.68;28.10;;;19.30;66.80;;;;;;4933607;28;20106;-63
2021/11/02 13:13:06;;;;;;;82.53;26.75;;;19.00;68.40;;;;;;4934601;28;20649;-60
2021/11/02 13:15:47;;;;;;;80.88;27.27;;;18.80;69.10;;;;;;4949906;28;20107;-60
2021/11/02 13:18:37;;;;;;;83.38;28.60;;;18.70;70.10;;;;;;4967173;28;20465;-61
2021/11/02 13:21:21;;;;;;;79.38;29.92;;;18.60;71.00;;;;;;4951212;28;20095;-60
2021/11/02 13:24:03;;;;;;;73.60;27.85;;;18.50;71.30;;;;;;4966990;28;20090;-61
2021/11/02 13:26:32;;;;;;;79.88;27.50;;;18.50;72.10;;;;;;4935475;28;20075;-62
2021/11/02 13:29:13;;;;;;;88.20;27.33;;;18.40;72.40;;;;;;4951290;28;20485;-62
2021/11/02 13:31:40;;;;;;;75.35;26.85;;;18.60;71.70;;;;;;4950443;28;20170;-61
2021/11/02 13:34:16;;;;;;;83.35;27.70;;;18.70;71.40;;;;;;4977255;28;20200;-61
2021/11/02 13:36:43;;;;;;;80.50;27.63;;;18.60;72.40;;;;;;5007301;28;20546;-62
2021/11/02 13:39:12;;;;;;;76.10;25.75;;;18.50;99.90;;;;;;5009448;28;20165;-61
2021/11/02 13:41:50;;;;;;;75.28;28.98;;;18.40;73.60;;;;;;5006956;28;20131;-61
2021/11/02 13:44:18;;;;;;;82.93;27.85;;;18.30;74.00;;;;;;5006417;28;20535;-61
2021/11/02 13:46:47;;;;;;;76.15;27.80;;;18.10;75.00;;;;;;5008998;28;20125;-61
2021/11/02 13:49:15;;;;;;;93.40;29.50;;;18.30;74.80;;;;;;5008996;28;20673;-62
2021/11/02 13:51:42;;;;;;;79.90;27.35;;;18.20;75.10;;;;;;4975157;28;20130;-62
2021/11/02 13:54:10;;;;;;;88.18;27.77;;;18.10;75.30;;;;;;4989456;28;20165;-61
2021/11/02 13:56:43;;;;;;;87.00;28.50;;;18.10;75.90;;;;;;4990347;28;20087;-63
2021/11/02 13:59:11;;;;;;;82.93;29.98;;;18.30;75.30;;;;;;4975171;28;20449;-63
2021/11/02 14:01:45;;;;;;;82.55;28.63;;;18.20;75.00;;;;;;5007824;28;20300;-61
2021/11/02 14:04:37;;;;;;;83.95;29.73;;;18.30;75.10;;;;;;5007111;28;20077;-60
2021/11/02 14:07:13;;;;;;;80.85;28.05;;;18.20;74.80;;;;;;5009079;28;20609;-61
2021/11/02 14:09:45;;;;;;;87.38;25.85;;;18.20;75.20;;;;;;4991124;28;20086;-61
2021/11/02 14:12:32;;;;;;;77.57;28.15;;;18.40;74.80;;;;;;5007748;28;20108;-62
2021/11/02 14:15:19;;;;;;;84.47;26.98;;;18.40;74.60;;;;;;4974081;28;20546;-61
2021/11/02 14:18:09;;;;;;;74.73;26.10;;;18.50;75.10;;;;;;5007390;28;20174;-62
2021/11/02 14:20:37;;;;;;;75.68;26.48;;;18.50;74.80;;;;;;4990917;28;20087;-63
2021/11/02 14:23:06;;;;;;;88.95;27.65;;;18.40;75.30;;;;;;4974767;28;20105;-62
2021/11/02 14:25:34;;;;;;;76.18;25.80;;;18.30;75.60;;;;;;4980687;28;20715;-63
2021/11/02 14:28:00;;;;;;;77.18;26.70;;;18.40;75.20;;;;;;4989312;28;20095;-64
2021/11/02 14:30:33;;;;;;;63.33;25.05;;;18.40;75.30;;;;;;4991404;28;20422;-64
2021/11/02 14:33:01;;;;;;;63.13;26.00;;;18.40;75.90;;;;;;4990538;28;20572;-62
2021/11/02 14:35:39;;;;;;;83.43;27.70;;;18.40;76.20;;;;;;5007074;28;20078;-64
2021/11/02 14:38:48;;;;;;;97.25;29.75;;;18.40;75.80;;;;;;4989857;28;20077;-62
2021/11/02 14:41:35;;;;;;;85.45;29.60;;;18.70;75.60;;;;;;4931859;28;20107;-61
2021/11/02 14:44:27;;;;;;;84.40;30.98;;;18.50;77.20;;;;;;4931979;28;20027;-60
2021/11/02 14:46:59;;;;;;;93.90;31.25;;;18.60;78.20;;;;;;4946965;28;21126;-61
2021/11/02 14:49:28;;;;;;;99.00;33.38;;;18.50;99.90;;;;;;4951422;28;20125;-63
2021/11/02 14:52:08;;;;;;;95.78;33.67;;;18.80;74.60;;;;;;4953213;28;20179;-62
2021/11/02 14:54:45;;;;;;;96.60;34.13;;;18.90;74.30;;;;;;4951858;28;20075;-63
2021/11/02 14:57:20;;;;;;;102.20;35.35;;;19.10;75.30;;;;;;4952794;28;20071;-61
2021/11/02 14:59:58;;;;;;;94.35;34.03;;;19.20;73.40;;;;;;4951624;28;20517;-63
2021/11/02 15:02:39;;;;;;;81.13;33.10;;;19.40;71.90;;;;;;4952180;28;20080;-61
2021/11/02 15:05:10;;;;;;;87.95;32.55;;;19.60;70.60;;;;;;4966398;28;20598;-64
2021/11/02 15:07:45;;;;;;;83.95;32.60;;;19.80;71.20;;;;;;4950342;28;21144;-64
2021/11/02 15:10:14;;;;;;;89.20;33.08;;;20.10;68.80;;;;;;4951138;28;20070;-64
2021/11/02 15:12:44;;;;;;;100.10;32.63;;;20.30;66.90;;;;;;4951425;28;20514;-63
2021/11/02 15:15:11;;;;;;;94.18;30.55;;;20.50;64.40;;;;;;4935633;28;20095;-64
2021/11/02 15:17:38;;;;;;;99.25;26.33;;;20.70;61.20;;;;;;4972301;28;20097;-63
2021/11/02 15:20:06;;;;;;;73.65;26.42;;;20.90;59.00;;;;;;5004966;28;20104;-62
2021/11/02 15:22:32;;;;;;;85.65;26.35;;;21.20;58.90;;;;;;5004795;28;20089;-63
2021/11/02 15:25:02;;;;;;;100.22;25.75;;;21.30;57.70;;;;;;5007355;28;20775;-62
2021/11/02 15:27:33;;;;;;;79.45;23.33;;;21.60;58.10;;;;;;4989030;28;20460;-63
2021/11/02 15:30:07;;;;;;;65.60;21.77;;;21.70;57.80;;;;;;5004908;28;20086;-59
2021/11/02 15:32:51;;;;;;;93.93;20.20;;;22.00;57.80;;;;;;5004962;28;20096;-63
2021/11/02 15:35:22;;;;;;;204.40;24.95;;;22.20;56.00;;;;;;5005433;28;20081;-62
2021/11/02 15:38:00;;;;;;;82.75;18.38;;;22.30;55.00;;;;;;5005623;28;20082;-63
2021/11/02 15:40:41;;;;;;;91.18;19.45;;;22.40;54.50;;;;;;5004422;28;20169;-65
2021/11/02 15:43:13;;;;;;;66.15;17.23;;;22.50;53.90;;;;;;5004859;28;20109;-63
2021/11/02 15:45:48;;;;;;;82.63;16.70;;;22.60;52.80;;;;;;5002841;28;20157;-64
2021/11/02 15:48:19;;;;;;;61.28;14.90;;;22.70;51.50;;;;;;4986845;28;20086;-62
2021/11/02 15:50:48;;;;;;;47.17;12.40;;;22.80;52.00;;;;;;4986887;28;20105;-63
2021/11/02 15:53:22;;;;;;;56.55;13.05;;;22.90;52.80;;;;;;4986497;28;20506;-62
2021/11/02 15:55:48;;;;;;;63.38;13.63;;;23.00;54.40;;;;;;4986249;28;20729;-61
2021/11/02 15:58:16;;;;;;;57.60;13.52;;;23.20;53.90;;;;;;4987208;28;20114;-62
2021/11/02 16:00:45;;;;;;;53.25;13.25;;;23.50;52.70;;;;;;4986283;28;20071;-62
2021/11/02 16:03:16;;;;;;;51.90;13.20;;;23.90;52.20;;;;;;4987046;28;20165;-62
2021/11/02 16:05:44;;;;;;;50.55;12.27;;;25.10;68.40;;;;;;4986637;28;20129;-62
2021/11/02 16:08:30;;;;;;;43.17;12.05;;;25.00;48.10;;;;;;4985708;28;20075;-62
2021/11/02 16:11:07;;;;;;;45.20;11.05;;;25.60;47.30;;;;;;4988012;28;20097;-61
2021/11/02 16:13:34;;;;;;;50.15;10.70;;;26.20;45.40;;;;;;4986702;28;20086;-62
2021/11/02 16:16:04;;;;;;;39.83;9.38;;;26.70;44.30;;;;;;4987246;28;20086;-62
2021/11/02 16:18:33;;;;;;;32.85;9.05;;;27.20;43.80;;;;;;4987303;28;20078;-63
2021/11/02 16:21:03;;;;;;;24.02;7.25;;;27.60;43.40;;;;;;4991355;28;20561;-63
2021/11/02 16:23:46;;;;;;;14.88;5.18;;;28.10;41.40;;;;;;4990363;28;20083;-61
2021/11/02 16:26:29;;;;;;;19.83;5.82;;;28.10;41.20;;;;;;4974478;28;20075;-62
2021/11/02 16:29:07;;;;;;;19.88;6.15;;;28.50;40.50;;;;;;4990574;28;20091;-62
2021/11/02 16:31:34;;;;;;;11.85;5.20;;;28.90;38.50;;;;;;4990395;28;20185;-62
2021/11/02 16:34:15;;;;;;;20.65;5.32;;;29.10;38.50;;;;;;4990914;28;20101;-62
2021/11/02 16:36:41;;;;;;;22.70;4.68;;;29.50;38.90;;;;;;4990909;28;20560;-61
2021/11/02 16:39:14;;;;;;;10.45;3.97;;;29.80;37.40;;;;;;4990975;28;20087;-63
2021/11/02 16:41:46;;;;;;;13.85;3.90;;;30.20;36.30;;;;;;4991954;28;20075;-63
2021/11/02 16:44:16;;;;;;;15.15;4.82;;;30.50;35.30;;;;;;4990947;28;20083;-62
2021/11/02 16:46:51;;;;;;;12.57;4.28;;;30.60;35.10;;;;;;4990578;28;20189;-61
2021/11/02 16:49:24;;;;;;;12.95;4.00;;;30.60;34.90;;;;;;4972848;28;20168;-62
2021/11/02 16:52:11;;;;;;;13.55;4.80;;;31.00;34.70;;;;;;4973082;28;20091;-61
2021/11/02 16:54:43;;;;;;;18.13;4.47;;;31.50;33.60;;;;;;4972629;28;20101;-64
2021/11/02 16:57:17;;;;;;;20.17;3.53;;;31.90;33.40;;;;;;4957244;28;20082;-64
2021/11/02 16:59:56;;;;;;;14.50;4.07;;;32.10;31.90;;;;;;4957064;28;20081;-66
2021/11/02 17:02:25;;;;;;;11.70;2.97;;;32.00;31.60;;;;;;4989057;28;20074;-70
2021/11/02 17:05:16;;;;;;;9.65;4.07;;;31.20;32.40;;;;;;4971177;28;20596;-68
2021/11/02 17:07:52;;;;;;;11.98;3.28;;;31.10;33.30;;;;;;4971285;28;20086;-69
2021/11/02 17:10:26;;;;;;;16.33;3.95;;;31.20;33.10;;;;;;4988321;28;20477;-68
2021/11/02 17:13:06;;;;;;;13.23;3.15;;;31.40;32.40;;;;;;4971981;28;20103;-68
2021/11/02 17:15:58;;;;;;;11.07;3.20;;;31.50;31.20;;;;;;4971230;28;20090;-68
2021/11/02 17:18:46;;;;;;;9.10;3.15;;;31.70;30.70;;;;;;4989178;28;20071;-70
2021/11/02 17:21:17;;;;;;;10.85;3.45;;;32.00;29.90;;;;;;4957171;28;20075;-70
2021/11/02 17:23:43;;;;;;;10.95;3.10;;;32.00;29.70;;;;;;4972511;28;20130;-69
2021/11/02 17:26:12;;;;;;;10.27;3.33;;;32.10;29.70;;;;;;4973103;28;20082;-70
2021/11/02 17:28:42;;;;;;;15.85;3.08;;;32.40;29.50;;;;;;4972151;28;20557;-69
2021/11/02 17:31:09;;;;;;;9.05;2.38;;;33.50;28.10;;;;;;4971654;28;20109;-70
2021/11/02 17:33:36;;;;;;;8.10;2.75;;;33.60;28.50;;;;;;4973162;28;20530;-70
2021/11/02 17:36:05;;;;;;;10.15;2.72;;;34.20;28.00;;;;;;4972862;28;20086;-70
2021/11/02 17:38:33;;;;;;;6.00;1.83;;;34.80;28.00;;;;;;4990298;28;20477;-68
2021/11/02 17:41:04;;;;;;;6.53;1.88;;;35.20;25.70;;;;;;4971804;28;20553;-69
2021/11/02 17:43:32;;;;;;;6.22;2.10;;;35.30;26.00;;;;;;4971499;28;20441;-70
2021/11/02 17:45:59;;;;;;;10.70;2.40;;;35.70;25.90;;;;;;4988985;28;20114;-70